sensor_id;sensor_type;location;lat;lon;timestamp;temperature;humidity
1602;DHT22;794;48.592;9.634;2024-03-22T00:02:08;7.10;1.00
1602;DHT22;794;48.592;9.634;2024-03-22T00:04:34;7.10;1.00
1602;DHT22;794;48.592;9.634;2024-03-22T00:07:02;6.50;1.00
1602;DHT22;794;48.592;9.634;2024-03-22T00:09:28;6.50;1.00
1602;DHT22;794;48.592;9.634;2024-03-22T00:11:55;6.30;1.00
1602;DHT22;794;48.592;9.634;2024-03-22T00:14:21;6.00;1.00
1602;DHT22;794;48.592;9.634;2024-03-22T00:16:48;6.30;1.00
1602;DHT22;794;48.592;9.634;2024-03-22T00:19:16;6.30;1.00
1602;DHT22;794;48.592;9.634;2024-03-22T00:21:43;6.00;1.00
1602;DHT22;794;48.592;9.634;2024-03-22T00:24:08;6.20;1.00
1602;DHT22;794;48.592;9.634;2024-03-22T00:26:35;6.00;1.00
1602;DHT22;794;48.592;9.634;2024-03-22T00:29:01;5.80;1.00
1602;DHT22;794;48.592;9.634;2024-03-22T00:31:28;7.10;1.00
1602;DHT22;794;48.592;9.634;2024-03-22T00:33:54;5.70;1.00
1602;DHT22;794;48.592;9.634;2024-03-22T00:36:23;5.60;1.00
1602;DHT22;794;48.592;9.634;2024-03-22T00:38:49;5.80;1.00
1602;DHT22;794;48.592;9.634;2024-03-22T00:41:16;5.90;1.00
1602;DHT22;794;48.592;9.634;2024-03-22T00:43:42;5.60;1.00
1602;DHT22;794;48.592;9.634;2024-03-22T00:46:08;5.70;1.00
1602;DHT22;794;48.592;9.634;2024-03-22T00:48:34;5.70;1.00
1602;DHT22;794;48.592;9.634;2024-03-22T00:51:02;5.50;1.00
1602;DHT22;794;48.592;9.634;2024-03-22T00:53:29;5.50;1.00
1602;DHT22;794;48.592;9.634;2024-03-22T00:55:56;5.50;1.00
1602;DHT22;794;48.592;9.634;2024-03-22T00:58:25;5.80;1.00
1602;DHT22;794;48.592;9.634;2024-03-22T01:00:52;5.30;1.00
1602;DHT22;794;48.592;9.634;2024-03-22T01:03:18;6.20;1.00
1602;DHT22;794;48.592;9.634;2024-03-22T01:05:45;5.60;1.00
1602;DHT22;794;48.592;9.634;2024-03-22T01:08:11;5.50;1.00
1602;DHT22;794;48.592;9.634;2024-03-22T01:10:39;5.40;1.00
1602;DHT22;794;48.592;9.634;2024-03-22T01:13:05;5.50;1.00
1602;DHT22;794;48.592;9.634;2024-03-22T01:15:32;6.30;1.00
1602;DHT22;794;48.592;9.634;2024-03-22T01:17:58;5.90;1.00
1602;DHT22;794;48.592;9.634;2024-03-22T01:20:25;5.20;1.00
1602;DHT22;794;48.592;9.634;2024-03-22T01:22:51;5.90;1.00
1602;DHT22;794;48.592;9.634;2024-03-22T01:25:18;5.20;1.00
1602;DHT22;794;48.592;9.634;2024-03-22T01:27:45;5.00;1.00
1602;DHT22;794;48.592;9.634;2024-03-22T01:30:12;5.20;1.00
1602;DHT22;794;48.592;9.634;2024-03-22T01:32:38;5.10;1.00
1602;DHT22;794;48.592;9.634;2024-03-22T01:35:05;5.10;1.00
1602;DHT22;794;48.592;9.634;2024-03-22T01:37:31;5.00;1.00
1602;DHT22;794;48.592;9.634;2024-03-22T01:39:58;5.90;1.00
1602;DHT22;794;48.592;9.634;2024-03-22T01:42:24;5.00;1.00
1602;DHT22;794;48.592;9.634;2024-03-22T01:44:53;3.70;1.00
1602;DHT22;794;48.592;9.634;2024-03-22T01:47:19;5.00;1.00
1602;DHT22;794;48.592;9.634;2024-03-22T01:49:46;4.80;1.00
1602;DHT22;794;48.592;9.634;2024-03-22T01:52:13;4.90;1.00
1602;DHT22;794;48.592;9.634;2024-03-22T01:54:41;5.10;1.00
1602;DHT22;794;48.592;9.634;2024-03-22T01:57:06;5.10;1.00
1602;DHT22;794;48.592;9.634;2024-03-22T01:59:34;5.30;1.00
1602;DHT22;794;48.592;9.634;2024-03-22T02:02:01;4.70;1.00
1602;DHT22;794;48.592;9.634;2024-03-22T02:04:29;5.70;1.00
1602;DHT22;794;48.592;9.634;2024-03-22T02:06:55;4.40;1.00
1602;DHT22;794;48.592;9.634;2024-03-22T02:09:22;4.90;1.00
1602;DHT22;794;48.592;9.634;2024-03-22T02:11:48;4.50;1.00
1602;DHT22;794;48.592;9.634;2024-03-22T02:14:15;4.90;1.00
1602;DHT22;794;48.592;9.634;2024-03-22T02:16:41;4.90;1.00
1602;DHT22;794;48.592;9.634;2024-03-22T02:19:10;4.70;1.00
1602;DHT22;794;48.592;9.634;2024-03-22T02:21:35;4.50;1.00
1602;DHT22;794;48.592;9.634;2024-03-22T02:24:04;4.60;1.00
1602;DHT22;794;48.592;9.634;2024-03-22T02:26:30;4.30;1.00
1602;DHT22;794;48.592;9.634;2024-03-22T02:28:57;4.50;1.00
1602;DHT22;794;48.592;9.634;2024-03-22T02:31:23;4.40;1.00
1602;DHT22;794;48.592;9.634;2024-03-22T02:33:51;4.20;1.00
1602;DHT22;794;48.592;9.634;2024-03-22T02:36:17;4.50;1.00
1602;DHT22;794;48.592;9.634;2024-03-22T02:38:44;4.80;1.00
1602;DHT22;794;48.592;9.634;2024-03-22T02:41:11;5.50;1.00
1602;DHT22;794;48.592;9.634;2024-03-22T02:43:38;4.50;1.00
1602;DHT22;794;48.592;9.634;2024-03-22T02:46:04;4.40;1.00
1602;DHT22;794;48.592;9.634;2024-03-22T02:48:31;4.50;1.00
1602;DHT22;794;48.592;9.634;2024-03-22T02:50:57;4.50;1.00
1602;DHT22;794;48.592;9.634;2024-03-22T02:53:24;4.30;1.00
1602;DHT22;794;48.592;9.634;2024-03-22T02:55:50;4.50;1.00
1602;DHT22;794;48.592;9.634;2024-03-22T02:58:21;6.40;1.00
1602;DHT22;794;48.592;9.634;2024-03-22T03:00:47;4.40;1.00
1602;DHT22;794;48.592;9.634;2024-03-22T03:03:14;4.50;1.00
1602;DHT22;794;48.592;9.634;2024-03-22T03:05:41;4.90;1.00
1602;DHT22;794;48.592;9.634;2024-03-22T03:08:08;4.40;1.00
1602;DHT22;794;48.592;9.634;2024-03-22T03:10:34;5.00;1.00
1602;DHT22;794;48.592;9.634;2024-03-22T03:13:01;4.40;1.00
1602;DHT22;794;48.592;9.634;2024-03-22T03:15:29;4.50;1.00
1602;DHT22;794;48.592;9.634;2024-03-22T03:17:56;4.80;1.00
1602;DHT22;794;48.592;9.634;2024-03-22T03:20:22;4.20;1.00
1602;DHT22;794;48.592;9.634;2024-03-22T03:22:49;4.40;1.00
1602;DHT22;794;48.592;9.634;2024-03-22T03:25:15;4.30;1.00
1602;DHT22;794;48.592;9.634;2024-03-22T03:27:41;4.40;1.00
1602;DHT22;794;48.592;9.634;2024-03-22T03:30:08;4.30;1.00
1602;DHT22;794;48.592;9.634;2024-03-22T03:32:36;4.40;1.00
1602;DHT22;794;48.592;9.634;2024-03-22T03:35:02;4.70;1.00
1602;DHT22;794;48.592;9.634;2024-03-22T03:37:30;4.10;1.00
1602;DHT22;794;48.592;9.634;2024-03-22T03:39:56;4.60;1.00
1602;DHT22;794;48.592;9.634;2024-03-22T03:42:24;4.20;1.00
1602;DHT22;794;48.592;9.634;2024-03-22T03:44:50;4.60;1.00
1602;DHT22;794;48.592;9.634;2024-03-22T03:47:17;3.70;1.00
1602;DHT22;794;48.592;9.634;2024-03-22T03:49:46;4.10;1.00
1602;DHT22;794;48.592;9.634;2024-03-22T03:52:13;4.10;1.00
1602;DHT22;794;48.592;9.634;2024-03-22T03:54:39;4.10;1.00
1602;DHT22;794;48.592;9.634;2024-03-22T03:57:06;4.40;1.00
1602;DHT22;794;48.592;9.634;2024-03-22T03:59:32;4.40;1.00
1602;DHT22;794;48.592;9.634;2024-03-22T04:01:59;3.70;1.00
1602;DHT22;794;48.592;9.634;2024-03-22T04:04:25;4.10;1.00
1602;DHT22;794;48.592;9.634;2024-03-22T04:06:53;3.70;1.00
1602;DHT22;794;48.592;9.634;2024-03-22T04:09:19;3.90;1.00
1602;DHT22;794;48.592;9.634;2024-03-22T04:11:46;4.10;1.00
1602;DHT22;794;48.592;9.634;2024-03-22T04:14:13;4.00;1.00
1602;DHT22;794;48.592;9.634;2024-03-22T04:16:40;4.50;1.00
1602;DHT22;794;48.592;9.634;2024-03-22T04:19:06;4.90;1.00
1602;DHT22;794;48.592;9.634;2024-03-22T04:21:33;3.90;1.00
1602;DHT22;794;48.592;9.634;2024-03-22T04:24:00;3.90;1.00
1602;DHT22;794;48.592;9.634;2024-03-22T04:26:27;4.00;1.00
1602;DHT22;794;48.592;9.634;2024-03-22T04:28:53;4.10;1.00
1602;DHT22;794;48.592;9.634;2024-03-22T04:31:20;4.30;1.00
1602;DHT22;794;48.592;9.634;2024-03-22T04:33:46;4.00;1.00
1602;DHT22;794;48.592;9.634;2024-03-22T04:36:13;4.20;1.00
1602;DHT22;794;48.592;9.634;2024-03-22T04:38:38;3.90;1.00
1602;DHT22;794;48.592;9.634;2024-03-22T04:41:07;3.60;1.00
1602;DHT22;794;48.592;9.634;2024-03-22T04:43:35;3.80;1.00
1602;DHT22;794;48.592;9.634;2024-03-22T04:46:01;3.60;1.00
1602;DHT22;794;48.592;9.634;2024-03-22T04:48:28;4.10;1.00
1602;DHT22;794;48.592;9.634;2024-03-22T04:50:54;3.70;1.00
1602;DHT22;794;48.592;9.634;2024-03-22T04:53:21;3.50;1.00
1602;DHT22;794;48.592;9.634;2024-03-22T04:55:47;5.00;1.00
1602;DHT22;794;48.592;9.634;2024-03-22T04:58:17;3.60;1.00
1602;DHT22;794;48.592;9.634;2024-03-22T05:00:44;4.30;1.00
1602;DHT22;794;48.592;9.634;2024-03-22T05:03:13;3.90;1.00
1602;DHT22;794;48.592;9.634;2024-03-22T05:05:40;3.40;1.00
1602;DHT22;794;48.592;9.634;2024-03-22T05:08:07;3.60;1.00
1602;DHT22;794;48.592;9.634;2024-03-22T05:10:34;3.60;1.00
1602;DHT22;794;48.592;9.634;2024-03-22T05:13:00;3.90;1.00
1602;DHT22;794;48.592;9.634;2024-03-22T05:15:29;3.70;1.00
1602;DHT22;794;48.592;9.634;2024-03-22T05:17:57;3.80;1.00
1602;DHT22;794;48.592;9.634;2024-03-22T05:20:24;3.80;1.00
1602;DHT22;794;48.592;9.634;2024-03-22T05:22:51;4.30;1.00
1602;DHT22;794;48.592;9.634;2024-03-22T05:25:18;3.60;1.00
1602;DHT22;794;48.592;9.634;2024-03-22T05:27:45;3.50;1.00
1602;DHT22;794;48.592;9.634;2024-03-22T05:30:30;4.40;1.00
1602;DHT22;794;48.592;9.634;2024-03-22T05:32:57;4.00;1.00
1602;DHT22;794;48.592;9.634;2024-03-22T05:35:23;4.40;1.00
1602;DHT22;794;48.592;9.634;2024-03-22T05:37:50;4.00;1.00
1602;DHT22;794;48.592;9.634;2024-03-22T05:40:16;3.90;1.00
1602;DHT22;794;48.592;9.634;2024-03-22T05:42:43;4.00;1.00
1602;DHT22;794;48.592;9.634;2024-03-22T05:45:09;4.10;1.00
1602;DHT22;794;48.592;9.634;2024-03-22T05:47:37;4.80;1.00
1602;DHT22;794;48.592;9.634;2024-03-22T05:50:04;4.10;1.00
1602;DHT22;794;48.592;9.634;2024-03-22T05:52:33;4.40;1.00
1602;DHT22;794;48.592;9.634;2024-03-22T05:54:59;4.20;1.00
1602;DHT22;794;48.592;9.634;2024-03-22T05:57:26;4.10;1.00
1602;DHT22;794;48.592;9.634;2024-03-22T05:59:52;4.50;1.00
1602;DHT22;794;48.592;9.634;2024-03-22T06:02:19;4.40;1.00
1602;DHT22;794;48.592;9.634;2024-03-22T06:04:46;5.20;1.00
1602;DHT22;794;48.592;9.634;2024-03-22T06:07:14;5.10;1.00
1602;DHT22;794;48.592;9.634;2024-03-22T06:09:42;4.80;1.00
1602;DHT22;794;48.592;9.634;2024-03-22T06:12:12;5.20;1.00
1602;DHT22;794;48.592;9.634;2024-03-22T06:14:39;5.70;1.00
1602;DHT22;794;48.592;9.634;2024-03-22T06:17:06;6.40;1.00
1602;DHT22;794;48.592;9.634;2024-03-22T06:19:32;6.00;1.00
1602;DHT22;794;48.592;9.634;2024-03-22T06:22:00;6.20;1.00
1602;DHT22;794;48.592;9.634;2024-03-22T06:24:27;6.40;1.00
1602;DHT22;794;48.592;9.634;2024-03-22T06:26:54;6.60;1.00
1602;DHT22;794;48.592;9.634;2024-03-22T06:29:20;6.60;1.00
1602;DHT22;794;48.592;9.634;2024-03-22T06:31:47;6.80;1.00
1602;DHT22;794;48.592;9.634;2024-03-22T06:34:13;6.80;1.00
1602;DHT22;794;48.592;9.634;2024-03-22T06:36:40;7.30;1.00
1602;DHT22;794;48.592;9.634;2024-03-22T06:39:08;7.50;1.00
1602;DHT22;794;48.592;9.634;2024-03-22T06:41:35;7.80;1.00
1602;DHT22;794;48.592;9.634;2024-03-22T06:44:01;8.00;1.00
1602;DHT22;794;48.592;9.634;2024-03-22T06:46:29;8.00;1.00
1602;DHT22;794;48.592;9.634;2024-03-22T06:48:55;7.70;1.00
1602;DHT22;794;48.592;9.634;2024-03-22T06:51:21;7.90;1.00
1602;DHT22;794;48.592;9.634;2024-03-22T06:53:47;7.90;1.00
1602;DHT22;794;48.592;9.634;2024-03-22T06:56:16;8.10;1.00
1602;DHT22;794;48.592;9.634;2024-03-22T06:58:41;7.90;1.00
1602;DHT22;794;48.592;9.634;2024-03-22T07:01:09;7.90;1.00
1602;DHT22;794;48.592;9.634;2024-03-22T07:03:35;8.10;1.00
1602;DHT22;794;48.592;9.634;2024-03-22T07:06:02;8.30;1.00
1602;DHT22;794;48.592;9.634;2024-03-22T07:08:28;8.60;1.00
1602;DHT22;794;48.592;9.634;2024-03-22T07:10:55;8.70;1.00
1602;DHT22;794;48.592;9.634;2024-03-22T07:13:22;9.00;1.00
1602;DHT22;794;48.592;9.634;2024-03-22T07:15:49;9.20;1.00
1602;DHT22;794;48.592;9.634;2024-03-22T07:18:16;9.80;1.00
1602;DHT22;794;48.592;9.634;2024-03-22T07:20:43;9.60;1.00
1602;DHT22;794;48.592;9.634;2024-03-22T07:23:11;9.70;1.00
1602;DHT22;794;48.592;9.634;2024-03-22T07:25:38;9.90;1.00
1602;DHT22;794;48.592;9.634;2024-03-22T07:28:05;10.10;1.00
1602;DHT22;794;48.592;9.634;2024-03-22T07:30:33;10.30;1.00
1602;DHT22;794;48.592;9.634;2024-03-22T07:33:01;10.50;1.00
1602;DHT22;794;48.592;9.634;2024-03-22T07:35:27;10.30;1.00
1602;DHT22;794;48.592;9.634;2024-03-22T07:37:54;10.80;1.00
1602;DHT22;794;48.592;9.634;2024-03-22T07:40:20;12.20;1.00
1602;DHT22;794;48.592;9.634;2024-03-22T07:42:46;15.00;1.00
1602;DHT22;794;48.592;9.634;2024-03-22T07:45:12;17.60;1.00
1602;DHT22;794;48.592;9.634;2024-03-22T07:47:41;19.60;1.00
1602;DHT22;794;48.592;9.634;2024-03-22T07:50:08;21.50;1.00
1602;DHT22;794;48.592;9.634;2024-03-22T07:52:38;23.20;1.00
1602;DHT22;794;48.592;9.634;2024-03-22T07:55:04;24.70;1.00
1602;DHT22;794;48.592;9.634;2024-03-22T07:57:32;25.70;1.00
1602;DHT22;794;48.592;9.634;2024-03-22T07:59:58;26.20;1.00
1602;DHT22;794;48.592;9.634;2024-03-22T08:02:25;26.80;1.00
1602;DHT22;794;48.592;9.634;2024-03-22T08:04:52;27.60;1.00
1602;DHT22;794;48.592;9.634;2024-03-22T08:07:19;27.80;1.00
1602;DHT22;794;48.592;9.634;2024-03-22T08:09:45;27.50;1.00
1602;DHT22;794;48.592;9.634;2024-03-22T08:12:12;26.80;1.00
1602;DHT22;794;48.592;9.634;2024-03-22T08:14:38;27.40;1.00
1602;DHT22;794;48.592;9.634;2024-03-22T08:17:06;27.20;1.00
1602;DHT22;794;48.592;9.634;2024-03-22T08:19:34;26.30;1.00
1602;DHT22;794;48.592;9.634;2024-03-22T08:22:03;27.00;1.00
1602;DHT22;794;48.592;9.634;2024-03-22T08:24:29;27.40;1.00
1602;DHT22;794;48.592;9.634;2024-03-22T08:26:56;28.10;1.00
1602;DHT22;794;48.592;9.634;2024-03-22T08:29:22;28.10;1.00
1602;DHT22;794;48.592;9.634;2024-03-22T08:31:49;28.50;1.00
1602;DHT22;794;48.592;9.634;2024-03-22T08:34:15;27.40;1.00
1602;DHT22;794;48.592;9.634;2024-03-22T08:36:42;28.20;1.00
1602;DHT22;794;48.592;9.634;2024-03-22T08:39:09;27.10;1.00
1602;DHT22;794;48.592;9.634;2024-03-22T08:41:36;25.80;1.00
1602;DHT22;794;48.592;9.634;2024-03-22T08:44:03;26.30;1.00
1602;DHT22;794;48.592;9.634;2024-03-22T08:46:30;24.20;1.00
1602;DHT22;794;48.592;9.634;2024-03-22T08:48:57;24.30;1.00
1602;DHT22;794;48.592;9.634;2024-03-22T08:51:24;24.10;1.00
1602;DHT22;794;48.592;9.634;2024-03-22T08:53:50;22.20;1.00
1602;DHT22;794;48.592;9.634;2024-03-22T08:56:18;21.40;1.00
1602;DHT22;794;48.592;9.634;2024-03-22T08:58:44;21.90;1.00
1602;DHT22;794;48.592;9.634;2024-03-22T09:01:11;23.50;1.00
1602;DHT22;794;48.592;9.634;2024-03-22T09:03:37;24.00;1.00
1602;DHT22;794;48.592;9.634;2024-03-22T09:06:05;24.80;1.00
1602;DHT22;794;48.592;9.634;2024-03-22T09:08:31;24.90;1.00
1602;DHT22;794;48.592;9.634;2024-03-22T09:10:59;23.80;1.00
1602;DHT22;794;48.592;9.634;2024-03-22T09:13:26;23.60;1.00
1602;DHT22;794;48.592;9.634;2024-03-22T09:15:57;23.70;1.00
1602;DHT22;794;48.592;9.634;2024-03-22T09:18:23;24.40;1.00
1602;DHT22;794;48.592;9.634;2024-03-22T09:20:50;23.70;1.00
1602;DHT22;794;48.592;9.634;2024-03-22T09:23:16;24.00;1.00
1602;DHT22;794;48.592;9.634;2024-03-22T09:25:42;24.00;1.00
1602;DHT22;794;48.592;9.634;2024-03-22T09:28:08;24.50;1.00
1602;DHT22;794;48.592;9.634;2024-03-22T09:30:39;24.80;1.00
1602;DHT22;794;48.592;9.634;2024-03-22T09:33:05;24.80;1.00
1602;DHT22;794;48.592;9.634;2024-03-22T09:35:33;24.90;1.00
1602;DHT22;794;48.592;9.634;2024-03-22T09:37:59;24.80;1.00
1602;DHT22;794;48.592;9.634;2024-03-22T09:40:26;25.30;1.00
1602;DHT22;794;48.592;9.634;2024-03-22T09:42:53;25.50;1.00
1602;DHT22;794;48.592;9.634;2024-03-22T09:45:20;24.70;1.00
1602;DHT22;794;48.592;9.634;2024-03-22T09:47:48;24.00;1.00
1602;DHT22;794;48.592;9.634;2024-03-22T09:50:16;23.90;1.00
1602;DHT22;794;48.592;9.634;2024-03-22T09:52:44;23.20;1.00
1602;DHT22;794;48.592;9.634;2024-03-22T09:55:11;23.60;1.00
1602;DHT22;794;48.592;9.634;2024-03-22T09:57:39;23.60;1.00
1602;DHT22;794;48.592;9.634;2024-03-22T10:00:07;23.80;1.00
1602;DHT22;794;48.592;9.634;2024-03-22T10:02:33;24.00;1.00
1602;DHT22;794;48.592;9.634;2024-03-22T10:05:02;24.00;1.00
1602;DHT22;794;48.592;9.634;2024-03-22T10:07:28;23.00;1.00
1602;DHT22;794;48.592;9.634;2024-03-22T10:09:57;23.60;1.00
1602;DHT22;794;48.592;9.634;2024-03-22T10:12:24;22.20;1.00
1602;DHT22;794;48.592;9.634;2024-03-22T10:14:52;21.90;1.00
1602;DHT22;794;48.592;9.634;2024-03-22T10:17:18;22.20;1.00
1602;DHT22;794;48.592;9.634;2024-03-22T10:19:45;22.50;1.00
1602;DHT22;794;48.592;9.634;2024-03-22T10:22:12;23.10;1.00
1602;DHT22;794;48.592;9.634;2024-03-22T10:24:39;22.80;1.00
1602;DHT22;794;48.592;9.634;2024-03-22T10:27:05;22.80;1.00
1602;DHT22;794;48.592;9.634;2024-03-22T10:29:33;22.30;1.00
1602;DHT22;794;48.592;9.634;2024-03-22T10:32:00;21.80;1.00
1602;DHT22;794;48.592;9.634;2024-03-22T10:34:28;21.30;1.00
1602;DHT22;794;48.592;9.634;2024-03-22T10:36:55;21.20;1.00
1602;DHT22;794;48.592;9.634;2024-03-22T10:39:24;21.20;1.00
1602;DHT22;794;48.592;9.634;2024-03-22T10:41:51;21.50;1.00
1602;DHT22;794;48.592;9.634;2024-03-22T10:44:18;21.50;1.00
1602;DHT22;794;48.592;9.634;2024-03-22T10:46:45;21.60;1.00
1602;DHT22;794;48.592;9.634;2024-03-22T10:49:16;20.30;1.00
1602;DHT22;794;48.592;9.634;2024-03-22T10:51:43;21.10;1.00
1602;DHT22;794;48.592;9.634;2024-03-22T10:54:15;21.30;1.00
1602;DHT22;794;48.592;9.634;2024-03-22T10:56:44;21.00;1.00
1602;DHT22;794;48.592;9.634;2024-03-22T10:59:25;20.80;1.00
1602;DHT22;794;48.592;9.634;2024-03-22T11:01:52;20.60;1.00
1602;DHT22;794;48.592;9.634;2024-03-22T11:04:20;20.20;1.00
1602;DHT22;794;48.592;9.634;2024-03-22T11:06:49;20.10;1.00
1602;DHT22;794;48.592;9.634;2024-03-22T11:09:20;20.20;1.00
1602;DHT22;794;48.592;9.634;2024-03-22T11:11:52;20.00;1.00
1602;DHT22;794;48.592;9.634;2024-03-22T11:14:18;20.10;1.00
1602;DHT22;794;48.592;9.634;2024-03-22T11:16:47;18.50;1.00
1602;DHT22;794;48.592;9.634;2024-03-22T11:19:13;20.20;1.00
1602;DHT22;794;48.592;9.634;2024-03-22T11:21:39;20.40;1.00
1602;DHT22;794;48.592;9.634;2024-03-22T11:24:05;20.40;1.00
1602;DHT22;794;48.592;9.634;2024-03-22T11:26:32;20.10;1.00
1602;DHT22;794;48.592;9.634;2024-03-22T11:29:00;20.10;1.00
1602;DHT22;794;48.592;9.634;2024-03-22T11:31:27;20.40;1.00
1602;DHT22;794;48.592;9.634;2024-03-22T11:33:53;20.80;1.00
1602;DHT22;794;48.592;9.634;2024-03-22T11:36:20;20.70;1.00
1602;DHT22;794;48.592;9.634;2024-03-22T11:38:46;20.90;1.00
1602;DHT22;794;48.592;9.634;2024-03-22T11:41:16;20.50;1.00
1602;DHT22;794;48.592;9.634;2024-03-22T11:43:43;20.00;1.00
1602;DHT22;794;48.592;9.634;2024-03-22T11:46:13;19.70;1.00
1602;DHT22;794;48.592;9.634;2024-03-22T11:48:40;20.00;1.00
1602;DHT22;794;48.592;9.634;2024-03-22T11:51:07;19.90;1.00
1602;DHT22;794;48.592;9.634;2024-03-22T11:53:34;20.00;1.00
1602;DHT22;794;48.592;9.634;2024-03-22T11:56:01;19.60;1.00
1602;DHT22;794;48.592;9.634;2024-03-22T11:58:29;19.60;1.00
1602;DHT22;794;48.592;9.634;2024-03-22T12:00:56;19.40;1.00
1602;DHT22;794;48.592;9.634;2024-03-22T12:03:24;19.10;1.00
1602;DHT22;794;48.592;9.634;2024-03-22T12:05:54;19.30;1.00
1602;DHT22;794;48.592;9.634;2024-03-22T12:08:20;19.30;1.00
1602;DHT22;794;48.592;9.634;2024-03-22T12:10:47;19.10;1.00
1602;DHT22;794;48.592;9.634;2024-03-22T12:13:13;19.00;1.00
1602;DHT22;794;48.592;9.634;2024-03-22T12:15:40;18.60;1.00
1602;DHT22;794;48.592;9.634;2024-03-22T12:18:06;18.40;1.00
1602;DHT22;794;48.592;9.634;2024-03-22T12:20:35;18.20;1.00
1602;DHT22;794;48.592;9.634;2024-03-22T12:23:01;18.30;1.00
1602;DHT22;794;48.592;9.634;2024-03-22T12:25:28;18.60;1.00
1602;DHT22;794;48.592;9.634;2024-03-22T12:27:54;18.70;1.00
1602;DHT22;794;48.592;9.634;2024-03-22T12:30:22;19.10;1.00
1602;DHT22;794;48.592;9.634;2024-03-22T12:32:47;19.50;1.00
1602;DHT22;794;48.592;9.634;2024-03-22T12:35:15;19.70;1.00
1602;DHT22;794;48.592;9.634;2024-03-22T12:37:44;19.40;1.00
1602;DHT22;794;48.592;9.634;2024-03-22T12:40:12;19.30;1.00
1602;DHT22;794;48.592;9.634;2024-03-22T12:42:39;18.90;1.00
1602;DHT22;794;48.592;9.634;2024-03-22T12:45:07;18.70;1.00
1602;DHT22;794;48.592;9.634;2024-03-22T12:47:33;18.70;1.00
1602;DHT22;794;48.592;9.634;2024-03-22T12:50:00;18.60;1.00
1602;DHT22;794;48.592;9.634;2024-03-22T12:52:26;18.50;1.00
1602;DHT22;794;48.592;9.634;2024-03-22T12:54:54;18.80;1.00
1602;DHT22;794;48.592;9.634;2024-03-22T12:57:20;19.00;1.00
1602;DHT22;794;48.592;9.634;2024-03-22T12:59:47;19.00;1.00
1602;DHT22;794;48.592;9.634;2024-03-22T13:02:13;19.20;1.00
1602;DHT22;794;48.592;9.634;2024-03-22T13:04:39;19.50;1.00
1602;DHT22;794;48.592;9.634;2024-03-22T13:07:05;19.70;1.00
1602;DHT22;794;48.592;9.634;2024-03-22T13:09:32;19.90;1.00
1602;DHT22;794;48.592;9.634;2024-03-22T13:12:00;20.00;1.00
1602;DHT22;794;48.592;9.634;2024-03-22T13:14:26;20.20;1.00
1602;DHT22;794;48.592;9.634;2024-03-22T13:16:53;20.10;1.00
1602;DHT22;794;48.592;9.634;2024-03-22T13:19:20;20.10;1.00
1602;DHT22;794;48.592;9.634;2024-03-22T13:21:46;20.40;1.00
1602;DHT22;794;48.592;9.634;2024-03-22T13:24:14;20.40;1.00
1602;DHT22;794;48.592;9.634;2024-03-22T13:26:41;20.10;1.00
1602;DHT22;794;48.592;9.634;2024-03-22T13:29:08;19.80;1.00
1602;DHT22;794;48.592;9.634;2024-03-22T13:31:35;19.90;1.00
1602;DHT22;794;48.592;9.634;2024-03-22T13:34:01;19.90;1.00
1602;DHT22;794;48.592;9.634;2024-03-22T13:36:29;19.80;1.00
1602;DHT22;794;48.592;9.634;2024-03-22T13:38:58;20.00;1.00
1602;DHT22;794;48.592;9.634;2024-03-22T13:41:25;20.00;1.00
1602;DHT22;794;48.592;9.634;2024-03-22T13:43:51;20.10;1.00
1602;DHT22;794;48.592;9.634;2024-03-22T13:46:19;19.80;1.00
1602;DHT22;794;48.592;9.634;2024-03-22T13:48:45;19.50;1.00
1602;DHT22;794;48.592;9.634;2024-03-22T13:51:13;19.50;1.00
1602;DHT22;794;48.592;9.634;2024-03-22T13:53:39;19.70;1.00
1602;DHT22;794;48.592;9.634;2024-03-22T13:56:06;19.80;1.00
1602;DHT22;794;48.592;9.634;2024-03-22T13:58:32;19.50;1.00
1602;DHT22;794;48.592;9.634;2024-03-22T14:01:00;19.30;1.00
1602;DHT22;794;48.592;9.634;2024-03-22T14:03:27;18.90;1.00
1602;DHT22;794;48.592;9.634;2024-03-22T14:05:54;18.80;1.00
1602;DHT22;794;48.592;9.634;2024-03-22T14:08:20;18.80;1.00
1602;DHT22;794;48.592;9.634;2024-03-22T14:10:47;19.10;1.00
1602;DHT22;794;48.592;9.634;2024-03-22T14:13:13;19.40;1.00
1602;DHT22;794;48.592;9.634;2024-03-22T14:15:41;19.50;1.00
1602;DHT22;794;48.592;9.634;2024-03-22T14:18:06;19.70;1.00
1602;DHT22;794;48.592;9.634;2024-03-22T14:20:35;20.00;1.00
1602;DHT22;794;48.592;9.634;2024-03-22T14:23:01;20.10;1.00
1602;DHT22;794;48.592;9.634;2024-03-22T14:25:29;20.00;1.00
1602;DHT22;794;48.592;9.634;2024-03-22T14:27:55;19.30;1.00
1602;DHT22;794;48.592;9.634;2024-03-22T14:30:22;19.10;1.00
1602;DHT22;794;48.592;9.634;2024-03-22T14:32:50;19.00;1.00
1602;DHT22;794;48.592;9.634;2024-03-22T14:35:18;18.80;1.00
1602;DHT22;794;48.592;9.634;2024-03-22T14:37:45;18.90;1.00
1602;DHT22;794;48.592;9.634;2024-03-22T14:40:13;18.90;1.00
1602;DHT22;794;48.592;9.634;2024-03-22T14:42:40;19.10;1.00
1602;DHT22;794;48.592;9.634;2024-03-22T14:45:09;19.30;1.00
1602;DHT22;794;48.592;9.634;2024-03-22T14:47:36;19.40;1.00
1602;DHT22;794;48.592;9.634;2024-03-22T14:50:03;19.40;1.00
1602;DHT22;794;48.592;9.634;2024-03-22T14:52:29;19.50;1.00
1602;DHT22;794;48.592;9.634;2024-03-22T14:54:57;19.40;1.00
1602;DHT22;794;48.592;9.634;2024-03-22T14:57:23;19.60;1.00
1602;DHT22;794;48.592;9.634;2024-03-22T14:59:50;19.60;1.00
1602;DHT22;794;48.592;9.634;2024-03-22T15:02:18;19.10;1.00
1602;DHT22;794;48.592;9.634;2024-03-22T15:04:46;19.20;1.00
1602;DHT22;794;48.592;9.634;2024-03-22T15:07:12;19.00;1.00
1602;DHT22;794;48.592;9.634;2024-03-22T15:09:40;18.90;1.00
1602;DHT22;794;48.592;9.634;2024-03-22T15:12:08;18.50;1.00
1602;DHT22;794;48.592;9.634;2024-03-22T15:14:35;18.40;1.00
1602;DHT22;794;48.592;9.634;2024-03-22T15:17:01;18.20;1.00
1602;DHT22;794;48.592;9.634;2024-03-22T15:19:28;18.20;1.00
1602;DHT22;794;48.592;9.634;2024-03-22T15:21:54;18.10;1.00
1602;DHT22;794;48.592;9.634;2024-03-22T15:24:21;18.40;1.00
1602;DHT22;794;48.592;9.634;2024-03-22T15:26:47;18.50;1.00
1602;DHT22;794;48.592;9.634;2024-03-22T15:29:16;18.70;1.00
1602;DHT22;794;48.592;9.634;2024-03-22T15:31:42;19.00;1.00
1602;DHT22;794;48.592;9.634;2024-03-22T15:34:09;19.30;1.00
1602;DHT22;794;48.592;9.634;2024-03-22T15:36:35;19.10;1.00
1602;DHT22;794;48.592;9.634;2024-03-22T15:39:02;19.30;1.00
1602;DHT22;794;48.592;9.634;2024-03-22T15:41:30;19.20;1.00
1602;DHT22;794;48.592;9.634;2024-03-22T15:43:57;18.80;1.00
1602;DHT22;794;48.592;9.634;2024-03-22T15:46:24;18.50;1.00
1602;DHT22;794;48.592;9.634;2024-03-22T15:48:51;18.40;1.00
1602;DHT22;794;48.592;9.634;2024-03-22T15:51:17;18.30;1.00
1602;DHT22;794;48.592;9.634;2024-03-22T15:53:44;18.30;1.00
1602;DHT22;794;48.592;9.634;2024-03-22T15:56:10;18.60;1.00
1602;DHT22;794;48.592;9.634;2024-03-22T15:58:37;18.30;1.00
1602;DHT22;794;48.592;9.634;2024-03-22T16:01:03;18.50;1.00
1602;DHT22;794;48.592;9.634;2024-03-22T16:03:32;18.50;1.00
1602;DHT22;794;48.592;9.634;2024-03-22T16:05:58;18.40;1.00
1602;DHT22;794;48.592;9.634;2024-03-22T16:08:25;18.30;1.00
1602;DHT22;794;48.592;9.634;2024-03-22T16:10:51;18.30;1.00
1602;DHT22;794;48.592;9.634;2024-03-22T16:13:18;18.30;1.00
1602;DHT22;794;48.592;9.634;2024-03-22T16:15:45;18.30;1.00
1602;DHT22;794;48.592;9.634;2024-03-22T16:18:12;18.10;1.00
1602;DHT22;794;48.592;9.634;2024-03-22T16:20:39;18.10;1.00
1602;DHT22;794;48.592;9.634;2024-03-22T16:23:06;17.90;1.00
1602;DHT22;794;48.592;9.634;2024-03-22T16:25:33;17.70;1.00
1602;DHT22;794;48.592;9.634;2024-03-22T16:28:00;17.60;1.00
1602;DHT22;794;48.592;9.634;2024-03-22T16:30:26;17.50;1.00
1602;DHT22;794;48.592;9.634;2024-03-22T16:32:54;17.30;1.00
1602;DHT22;794;48.592;9.634;2024-03-22T16:35:20;17.00;1.00
1602;DHT22;794;48.592;9.634;2024-03-22T16:37:49;16.80;1.00
1602;DHT22;794;48.592;9.634;2024-03-22T16:40:15;16.70;1.00